sensor_id;sensor_type;location;lat;lon;timestamp;P1;durP1;ratioP1;P2;durP2;ratioP2
46653;SDS011;38960;51.074;17.004;2022-08-21T00:00:15;8.70;;;7.85;;
46653;SDS011;38960;51.074;17.004;2022-08-21T00:02:57;8.23;;;7.28;;
46653;SDS011;38960;51.074;17.004;2022-08-21T00:05:26;8.57;;;7.10;;
46653;SDS011;38960;51.074;17.004;2022-08-21T00:07:52;11.13;;;8.00;;
46653;SDS011;38960;51.074;17.004;2022-08-21T00:10:18;9.23;;;7.97;;
46653;SDS011;38960;51.074;17.004;2022-08-21T00:12:44;8.32;;;7.53;;
46653;SDS011;38960;51.074;17.004;2022-08-21T00:15:11;8.25;;;7.45;;
46653;SDS011;38960;51.074;17.004;2022-08-21T00:17:40;9.93;;;8.13;;
46653;SDS011;38960;51.074;17.004;2022-08-21T00:20:06;8.82;;;7.93;;
46653;SDS011;38960;51.074;17.004;2022-08-21T00:22:34;10.07;;;7.75;;
46653;SDS011;38960;51.074;17.004;2022-08-21T00:25:00;10.43;;;8.15;;
46653;SDS011;38960;51.074;17.004;2022-08-21T00:27:27;9.23;;;8.20;;
46653;SDS011;38960;51.074;17.004;2022-08-21T00:29:52;12.10;;;8.48;;
46653;SDS011;38960;51.074;17.004;2022-08-21T00:32:19;8.75;;;7.60;;
46653;SDS011;38960;51.074;17.004;2022-08-21T00:34:47;9.00;;;7.85;;
46653;SDS011;38960;51.074;17.004;2022-08-21T00:37:13;7.95;;;7.18;;
46653;SDS011;38960;51.074;17.004;2022-08-21T00:39:38;9.07;;;8.20;;
46653;SDS011;38960;51.074;17.004;2022-08-21T00:42:04;8.40;;;7.60;;
46653;SDS011;38960;51.074;17.004;2022-08-21T00:44:29;9.10;;;7.80;;
46653;SDS011;38960;51.074;17.004;2022-08-21T00:46:56;8.50;;;7.55;;
46653;SDS011;38960;51.074;17.004;2022-08-21T00:49:22;7.50;;;6.70;;
46653;SDS011;38960;51.074;17.004;2022-08-21T00:51:51;6.93;;;6.32;;
46653;SDS011;38960;51.074;17.004;2022-08-21T00:54:20;7.10;;;6.38;;
46653;SDS011;38960;51.074;17.004;2022-08-21T00:56:50;7.25;;;6.32;;
46653;SDS011;38960;51.074;17.004;2022-08-21T01:01:44;7.55;;;6.63;;
46653;SDS011;38960;51.074;17.004;2022-08-21T01:04:09;7.20;;;6.32;;
46653;SDS011;38960;51.074;17.004;2022-08-21T01:06:36;9.52;;;6.47;;
46653;SDS011;38960;51.074;17.004;2022-08-21T01:09:02;7.32;;;5.97;;
46653;SDS011;38960;51.074;17.004;2022-08-21T01:11:28;9.23;;;6.40;;
46653;SDS011;38960;51.074;17.004;2022-08-21T01:13:53;8.55;;;6.72;;
46653;SDS011;38960;51.074;17.004;2022-08-21T01:16:20;8.90;;;6.53;;
46653;SDS011;38960;51.074;17.004;2022-08-21T01:18:46;9.43;;;6.68;;
46653;SDS011;38960;51.074;17.004;2022-08-21T01:21:14;7.47;;;6.68;;
46653;SDS011;38960;51.074;17.004;2022-08-21T01:23:43;10.30;;;6.82;;
46653;SDS011;38960;51.074;17.004;2022-08-21T01:26:10;8.40;;;6.85;;
46653;SDS011;38960;51.074;17.004;2022-08-21T01:28:38;8.02;;;6.55;;
46653;SDS011;38960;51.074;17.004;2022-08-21T01:31:07;7.10;;;6.45;;
46653;SDS011;38960;51.074;17.004;2022-08-21T01:33:35;6.68;;;5.70;;
46653;SDS011;38960;51.074;17.004;2022-08-21T01:36:00;7.30;;;5.50;;
46653;SDS011;38960;51.074;17.004;2022-08-21T01:38:26;6.60;;;5.53;;
46653;SDS011;38960;51.074;17.004;2022-08-21T01:40:52;5.70;;;4.93;;
46653;SDS011;38960;51.074;17.004;2022-08-21T01:43:17;5.10;;;4.50;;
46653;SDS011;38960;51.074;17.004;2022-08-21T01:45:43;5.40;;;4.85;;
46653;SDS011;38960;51.074;17.004;2022-08-21T01:48:09;6.30;;;5.35;;
46653;SDS011;38960;51.074;17.004;2022-08-21T01:50:34;6.60;;;4.75;;
46653;SDS011;38960;51.074;17.004;2022-08-21T01:53:00;5.18;;;4.45;;
46653;SDS011;38960;51.074;17.004;2022-08-21T01:55:26;4.65;;;4.25;;
46653;SDS011;38960;51.074;17.004;2022-08-21T01:57:51;5.05;;;4.60;;
46653;SDS011;38960;51.074;17.004;2022-08-21T02:00:19;4.25;;;3.85;;
46653;SDS011;38960;51.074;17.004;2022-08-21T02:02:48;3.90;;;3.60;;
46653;SDS011;38960;51.074;17.004;2022-08-21T02:05:14;5.18;;;4.35;;
46653;SDS011;38960;51.074;17.004;2022-08-21T02:07:40;4.30;;;3.42;;
46653;SDS011;38960;51.074;17.004;2022-08-21T02:10:08;4.13;;;3.65;;
46653;SDS011;38960;51.074;17.004;2022-08-21T02:12:34;3.95;;;3.58;;
46653;SDS011;38960;51.074;17.004;2022-08-21T02:15:00;3.50;;;3.20;;
46653;SDS011;38960;51.074;17.004;2022-08-21T02:17:26;3.53;;;2.70;;
46653;SDS011;38960;51.074;17.004;2022-08-21T02:19:51;3.10;;;2.70;;
46653;SDS011;38960;51.074;17.004;2022-08-21T02:22:17;2.97;;;2.40;;
46653;SDS011;38960;51.074;17.004;2022-08-21T02:24:42;2.35;;;2.15;;
46653;SDS011;38960;51.074;17.004;2022-08-21T02:27:09;3.55;;;2.45;;
46653;SDS011;38960;51.074;17.004;2022-08-21T02:29:34;2.75;;;2.10;;
46653;SDS011;38960;51.074;17.004;2022-08-21T02:32:00;3.00;;;2.20;;
46653;SDS011;38960;51.074;17.004;2022-08-21T02:34:25;2.53;;;2.30;;
46653;SDS011;38960;51.074;17.004;2022-08-21T02:36:51;2.80;;;2.42;;
46653;SDS011;38960;51.074;17.004;2022-08-21T02:39:16;2.53;;;2.30;;
46653;SDS011;38960;51.074;17.004;2022-08-21T02:41:42;2.47;;;2.28;;
46653;SDS011;38960;51.074;17.004;2022-08-21T02:44:07;2.00;;;1.80;;
46653;SDS011;38960;51.074;17.004;2022-08-21T02:46:33;2.13;;;1.92;;
46653;SDS011;38960;51.074;17.004;2022-08-21T02:48:58;2.35;;;2.00;;
46653;SDS011;38960;51.074;17.004;2022-08-21T02:51:23;3.25;;;2.00;;
46653;SDS011;38960;51.074;17.004;2022-08-21T02:53:50;1.85;;;1.75;;
46653;SDS011;38960;51.074;17.004;2022-08-21T02:56:16;2.83;;;1.90;;
46653;SDS011;38960;51.074;17.004;2022-08-21T02:58:45;2.55;;;2.08;;
46653;SDS011;38960;51.074;17.004;2022-08-21T03:01:13;2.17;;;1.77;;
46653;SDS011;38960;51.074;17.004;2022-08-21T03:03:39;3.85;;;2.00;;
46653;SDS011;38960;51.074;17.004;2022-08-21T03:06:07;2.03;;;1.80;;
46653;SDS011;38960;51.074;17.004;2022-08-21T03:08:33;3.97;;;2.30;;
46653;SDS011;38960;51.074;17.004;2022-08-21T03:10:58;2.90;;;2.10;;
46653;SDS011;38960;51.074;17.004;2022-08-21T03:13:25;2.28;;;2.08;;
46653;SDS011;38960;51.074;17.004;2022-08-21T03:15:52;2.58;;;2.17;;
46653;SDS011;38960;51.074;17.004;2022-08-21T03:18:17;2.10;;;1.90;;
46653;SDS011;38960;51.074;17.004;2022-08-21T03:20:43;4.50;;;2.63;;
46653;SDS011;38960;51.074;17.004;2022-08-21T03:23:10;2.63;;;2.17;;
46653;SDS011;38960;51.074;17.004;2022-08-21T03:25:36;4.30;;;2.05;;
46653;SDS011;38960;51.074;17.004;2022-08-21T03:28:03;3.13;;;1.92;;
46653;SDS011;38960;51.074;17.004;2022-08-21T03:30:30;6.35;;;2.17;;
46653;SDS011;38960;51.074;17.004;2022-08-21T03:32:59;3.90;;;2.28;;
46653;SDS011;38960;51.074;17.004;2022-08-21T03:35:25;2.20;;;2.00;;
46653;SDS011;38960;51.074;17.004;2022-08-21T03:37:51;2.10;;;1.88;;
46653;SDS011;38960;51.074;17.004;2022-08-21T03:40:18;2.50;;;1.80;;
46653;SDS011;38960;51.074;17.004;2022-08-21T03:42:44;2.20;;;1.98;;
46653;SDS011;38960;51.074;17.004;2022-08-21T03:45:12;2.00;;;1.80;;
46653;SDS011;38960;51.074;17.004;2022-08-21T03:47:49;2.35;;;1.88;;
46653;SDS011;38960;51.074;17.004;2022-08-21T03:50:35;2.10;;;1.90;;
46653;SDS011;38960;51.074;17.004;2022-08-21T03:53:02;2.22;;;2.00;;
46653;SDS011;38960;51.074;17.004;2022-08-21T03:55:28;1.95;;;1.80;;
46653;SDS011;38960;51.074;17.004;2022-08-21T03:57:53;2.63;;;1.90;;
46653;SDS011;38960;51.074;17.004;2022-08-21T04:00:19;3.33;;;2.00;;
46653;SDS011;38960;51.074;17.004;2022-08-21T04:02:45;1.83;;;1.58;;
46653;SDS011;38960;51.074;17.004;2022-08-21T04:05:12;1.95;;;1.35;;
46653;SDS011;38960;51.074;17.004;2022-08-21T04:07:38;1.70;;;1.60;;
46653;SDS011;38960;51.074;17.004;2022-08-21T04:10:04;1.77;;;1.65;;
46653;SDS011;38960;51.074;17.004;2022-08-21T04:12:31;1.80;;;1.70;;
46653;SDS011;38960;51.074;17.004;2022-08-21T04:14:56;2.60;;;1.80;;
46653;SDS011;38960;51.074;17.004;2022-08-21T04:17:22;1.88;;;1.65;;
46653;SDS011;38960;51.074;17.004;2022-08-21T04:19:47;2.60;;;1.70;;
46653;SDS011;38960;51.074;17.004;2022-08-21T04:22:14;1.83;;;1.50;;
46653;SDS011;38960;51.074;17.004;2022-08-21T04:24:40;3.33;;;1.75;;
46653;SDS011;38960;51.074;17.004;2022-08-21T04:27:06;2.72;;;1.60;;
46653;SDS011;38960;51.074;17.004;2022-08-21T04:29:31;1.70;;;1.60;;
46653;SDS011;38960;51.074;17.004;2022-08-21T04:31:56;1.70;;;1.40;;
46653;SDS011;38960;51.074;17.004;2022-08-21T04:34:22;2.35;;;1.50;;
46653;SDS011;38960;51.074;17.004;2022-08-21T04:36:47;1.83;;;1.60;;
46653;SDS011;38960;51.074;17.004;2022-08-21T04:39:13;1.67;;;1.58;;
46653;SDS011;38960;51.074;17.004;2022-08-21T04:41:38;1.73;;;1.63;;
46653;SDS011;38960;51.074;17.004;2022-08-21T04:44:04;1.35;;;1.25;;
46653;SDS011;38960;51.074;17.004;2022-08-21T04:46:29;1.98;;;1.55;;
46653;SDS011;38960;51.074;17.004;2022-08-21T04:48:55;2.20;;;1.70;;
46653;SDS011;38960;51.074;17.004;2022-08-21T04:51:24;2.80;;;1.38;;
46653;SDS011;38960;51.074;17.004;2022-08-21T04:53:54;1.52;;;1.42;;
46653;SDS011;38960;51.074;17.004;2022-08-21T04:56:25;1.83;;;1.73;;
46653;SDS011;38960;51.074;17.004;2022-08-21T04:58:54;2.47;;;1.30;;
46653;SDS011;38960;51.074;17.004;2022-08-21T05:01:22;1.70;;;1.17;;
46653;SDS011;38960;51.074;17.004;2022-08-21T05:03:50;3.83;;;1.33;;
46653;SDS011;38960;51.074;17.004;2022-08-21T05:06:18;3.05;;;1.60;;
46653;SDS011;38960;51.074;17.004;2022-08-21T05:08:44;1.40;;;1.30;;
46653;SDS011;38960;51.074;17.004;2022-08-21T05:11:11;1.27;;;1.17;;
46653;SDS011;38960;51.074;17.004;2022-08-21T05:13:36;1.95;;;1.20;;
46653;SDS011;38960;51.074;17.004;2022-08-21T05:16:02;2.15;;;1.30;;
46653;SDS011;38960;51.074;17.004;2022-08-21T05:18:28;1.58;;;1.48;;
46653;SDS011;38960;51.074;17.004;2022-08-21T05:20:53;1.60;;;1.40;;
46653;SDS011;38960;51.074;17.004;2022-08-21T05:23:19;1.33;;;1.20;;
46653;SDS011;38960;51.074;17.004;2022-08-21T05:25:44;1.38;;;1.27;;
46653;SDS011;38960;51.074;17.004;2022-08-21T05:28:10;1.40;;;1.15;;
46653;SDS011;38960;51.074;17.004;2022-08-21T05:30:36;3.25;;;1.30;;
46653;SDS011;38960;51.074;17.004;2022-08-21T05:33:03;1.42;;;1.20;;
46653;SDS011;38960;51.074;17.004;2022-08-21T05:35:30;2.10;;;1.70;;
46653;SDS011;38960;51.074;17.004;2022-08-21T05:37:57;1.60;;;1.50;;
46653;SDS011;38960;51.074;17.004;2022-08-21T05:40:24;2.33;;;1.30;;
46653;SDS011;38960;51.074;17.004;2022-08-21T05:42:50;3.25;;;1.63;;
46653;SDS011;38960;51.074;17.004;2022-08-21T05:45:15;1.45;;;1.27;;
46653;SDS011;38960;51.074;17.004;2022-08-21T05:47:42;2.25;;;1.50;;
46653;SDS011;38960;51.074;17.004;2022-08-21T05:50:07;1.70;;;1.60;;
46653;SDS011;38960;51.074;17.004;2022-08-21T05:52:33;1.98;;;1.52;;
46653;SDS011;38960;51.074;17.004;2022-08-21T05:54:58;4.32;;;1.73;;
46653;SDS011;38960;51.074;17.004;2022-08-21T05:57:24;1.98;;;1.75;;
46653;SDS011;38960;51.074;17.004;2022-08-21T05:59:50;6.38;;;1.60;;
46653;SDS011;38960;51.074;17.004;2022-08-21T06:02:19;2.28;;;1.60;;
46653;SDS011;38960;51.074;17.004;2022-08-21T06:04:45;2.40;;;1.60;;
46653;SDS011;38960;51.074;17.004;2022-08-21T06:07:11;2.88;;;1.75;;
46653;SDS011;38960;51.074;17.004;2022-08-21T06:09:37;1.50;;;1.40;;
46653;SDS011;38960;51.074;17.004;2022-08-21T06:12:10;2.25;;;1.70;;
46653;SDS011;38960;51.074;17.004;2022-08-21T06:14:37;1.60;;;1.50;;
46653;SDS011;38960;51.074;17.004;2022-08-21T06:17:04;2.05;;;1.70;;
46653;SDS011;38960;51.074;17.004;2022-08-21T06:19:31;2.60;;;1.67;;
46653;SDS011;38960;51.074;17.004;2022-08-21T06:21:57;2.85;;;1.73;;
46653;SDS011;38960;51.074;17.004;2022-08-21T06:24:23;2.92;;;1.85;;
46653;SDS011;38960;51.074;17.004;2022-08-21T06:26:49;3.35;;;2.17;;
46653;SDS011;38960;51.074;17.004;2022-08-21T06:29:15;2.00;;;1.70;;
46653;SDS011;38960;51.074;17.004;2022-08-21T06:31:44;1.77;;;1.55;;
46653;SDS011;38960;51.074;17.004;2022-08-21T06:34:11;2.40;;;1.70;;
46653;SDS011;38960;51.074;17.004;2022-08-21T06:36:36;2.42;;;1.60;;
46653;SDS011;38960;51.074;17.004;2022-08-21T06:39:02;3.42;;;2.05;;
46653;SDS011;38960;51.074;17.004;2022-08-21T06:41:28;3.58;;;2.10;;
46653;SDS011;38960;51.074;17.004;2022-08-21T06:43:55;2.60;;;2.30;;
46653;SDS011;38960;51.074;17.004;2022-08-21T06:46:21;5.90;;;2.30;;
46653;SDS011;38960;51.074;17.004;2022-08-21T06:48:47;4.00;;;1.95;;
46653;SDS011;38960;51.074;17.004;2022-08-21T06:51:13;3.50;;;1.98;;
46653;SDS011;38960;51.074;17.004;2022-08-21T06:53:38;5.55;;;2.10;;
46653;SDS011;38960;51.074;17.004;2022-08-21T06:56:04;3.38;;;1.90;;
46653;SDS011;38960;51.074;17.004;2022-08-21T06:58:30;5.57;;;2.70;;
46653;SDS011;38960;51.074;17.004;2022-08-21T07:00:56;4.22;;;2.30;;
46653;SDS011;38960;51.074;17.004;2022-08-21T07:03:35;6.07;;;2.50;;
46653;SDS011;38960;51.074;17.004;2022-08-21T07:08:29;3.78;;;2.17;;
46653;SDS011;38960;51.074;17.004;2022-08-21T07:10:56;6.72;;;2.70;;
46653;SDS011;38960;51.074;17.004;2022-08-21T07:13:22;4.07;;;2.58;;
46653;SDS011;38960;51.074;17.004;2022-08-21T07:15:48;5.68;;;2.42;;
46653;SDS011;38960;51.074;17.004;2022-08-21T07:18:13;5.15;;;2.95;;
46653;SDS011;38960;51.074;17.004;2022-08-21T07:20:39;6.03;;;2.47;;
46653;SDS011;38960;51.074;17.004;2022-08-21T07:23:06;4.57;;;2.63;;
46653;SDS011;38960;51.074;17.004;2022-08-21T07:25:33;12.80;;;2.67;;
46653;SDS011;38960;51.074;17.004;2022-08-21T07:27:59;4.43;;;2.42;;
46653;SDS011;38960;51.074;17.004;2022-08-21T07:30:25;4.20;;;2.53;;
46653;SDS011;38960;51.074;17.004;2022-08-21T07:32:52;5.32;;;2.60;;
46653;SDS011;38960;51.074;17.004;2022-08-21T07:35:18;4.53;;;2.72;;
46653;SDS011;38960;51.074;17.004;2022-08-21T07:37:44;4.40;;;2.70;;
46653;SDS011;38960;51.074;17.004;2022-08-21T07:40:10;4.10;;;2.70;;
46653;SDS011;38960;51.074;17.004;2022-08-21T07:42:39;4.78;;;2.42;;
46653;SDS011;38960;51.074;17.004;2022-08-21T07:45:06;6.00;;;2.45;;
46653;SDS011;38960;51.074;17.004;2022-08-21T07:47:32;4.82;;;2.78;;
46653;SDS011;38960;51.074;17.004;2022-08-21T07:49:57;4.10;;;2.72;;
46653;SDS011;38960;51.074;17.004;2022-08-21T07:52:23;5.93;;;2.65;;
46653;SDS011;38960;51.074;17.004;2022-08-21T07:54:48;4.38;;;2.53;;
46653;SDS011;38960;51.074;17.004;2022-08-21T07:57:14;4.90;;;2.92;;
46653;SDS011;38960;51.074;17.004;2022-08-21T07:59:39;4.85;;;2.75;;
46653;SDS011;38960;51.074;17.004;2022-08-21T08:02:05;5.05;;;2.67;;
46653;SDS011;38960;51.074;17.004;2022-08-21T08:04:31;6.65;;;2.72;;
46653;SDS011;38960;51.074;17.004;2022-08-21T08:06:56;4.88;;;2.30;;
46653;SDS011;38960;51.074;17.004;2022-08-21T08:09:21;4.22;;;2.20;;
46653;SDS011;38960;51.074;17.004;2022-08-21T08:11:47;4.28;;;2.00;;
46653;SDS011;38960;51.074;17.004;2022-08-21T08:14:13;5.38;;;2.17;;
46653;SDS011;38960;51.074;17.004;2022-08-21T08:16:38;4.45;;;2.28;;
46653;SDS011;38960;51.074;17.004;2022-08-21T08:19:04;5.32;;;2.30;;
46653;SDS011;38960;51.074;17.004;2022-08-21T08:21:29;4.53;;;2.38;;
46653;SDS011;38960;51.074;17.004;2022-08-21T08:23:55;4.05;;;2.17;;
46653;SDS011;38960;51.074;17.004;2022-08-21T08:26:20;3.17;;;1.90;;
46653;SDS011;38960;51.074;17.004;2022-08-21T08:28:46;3.55;;;2.20;;
46653;SDS011;38960;51.074;17.004;2022-08-21T08:31:14;3.30;;;1.80;;
46653;SDS011;38960;51.074;17.004;2022-08-21T08:33:40;2.85;;;1.90;;
46653;SDS011;38960;51.074;17.004;2022-08-21T08:36:05;2.80;;;2.00;;
46653;SDS011;38960;51.074;17.004;2022-08-21T08:38:38;3.63;;;2.10;;
46653;SDS011;38960;51.074;17.004;2022-08-21T08:41:17;6.00;;;2.58;;
46653;SDS011;38960;51.074;17.004;2022-08-21T08:43:54;4.23;;;2.10;;
46653;SDS011;38960;51.074;17.004;2022-08-21T08:51:45;3.83;;;2.30;;
46653;SDS011;38960;51.074;17.004;2022-08-21T08:54:15;6.53;;;2.28;;
46653;SDS011;38960;51.074;17.004;2022-08-21T08:56:43;6.97;;;2.50;;
46653;SDS011;38960;51.074;17.004;2022-08-21T08:59:20;3.58;;;2.10;;
46653;SDS011;38960;51.074;17.004;2022-08-21T09:01:48;3.05;;;1.90;;
46653;SDS011;38960;51.074;17.004;2022-08-21T09:04:15;5.30;;;2.53;;
46653;SDS011;38960;51.074;17.004;2022-08-21T09:28:42;3.83;;;2.20;;
46653;SDS011;38960;51.074;17.004;2022-08-21T09:31:11;5.35;;;2.50;;
46653;SDS011;38960;51.074;17.004;2022-08-21T09:33:56;8.18;;;2.60;;
46653;SDS011;38960;51.074;17.004;2022-08-21T09:36:29;5.35;;;2.45;;
46653;SDS011;38960;51.074;17.004;2022-08-21T09:39:00;3.97;;;2.13;;
46653;SDS011;38960;51.074;17.004;2022-08-21T09:41:30;3.38;;;2.25;;
46653;SDS011;38960;51.074;17.004;2022-08-21T09:43:59;3.08;;;2.10;;
46653;SDS011;38960;51.074;17.004;2022-08-21T09:46:25;3.45;;;2.13;;
46653;SDS011;38960;51.074;17.004;2022-08-21T09:48:56;4.22;;;2.00;;
46653;SDS011;38960;51.074;17.004;2022-08-21T09:51:26;5.15;;;2.17;;
46653;SDS011;38960;51.074;17.004;2022-08-21T09:54:07;4.30;;;2.00;;
46653;SDS011;38960;51.074;17.004;2022-08-21T09:56:39;2.65;;;1.65;;
46653;SDS011;38960;51.074;17.004;2022-08-21T09:59:47;6.05;;;2.00;;
46653;SDS011;38960;51.074;17.004;2022-08-21T10:04:53;2.33;;;1.58;;
46653;SDS011;38960;51.074;17.004;2022-08-21T10:07:21;3.97;;;1.90;;
46653;SDS011;38960;51.074;17.004;2022-08-21T10:09:58;4.35;;;1.70;;
46653;SDS011;38960;51.074;17.004;2022-08-21T10:20:14;2.03;;;1.45;;
46653;SDS011;38960;51.074;17.004;2022-08-21T10:25:55;4.87;;;2.07;;
46653;SDS011;38960;51.074;17.004;2022-08-21T10:28:33;3.38;;;1.90;;
46653;SDS011;38960;51.074;17.004;2022-08-21T10:31:15;5.78;;;1.92;;
46653;SDS011;38960;51.074;17.004;2022-08-21T10:33:49;3.58;;;1.92;;
46653;SDS011;38960;51.074;17.004;2022-08-21T10:36:28;3.20;;;1.75;;
46653;SDS011;38960;51.074;17.004;2022-08-21T10:47:05;4.13;;;1.90;;
46653;SDS011;38960;51.074;17.004;2022-08-21T10:55:41;5.22;;;2.60;;
46653;SDS011;38960;51.074;17.004;2022-08-21T10:58:11;4.68;;;1.60;;
46653;SDS011;38960;51.074;17.004;2022-08-21T11:00:46;4.63;;;2.35;;
46653;SDS011;38960;51.074;17.004;2022-08-21T11:03:15;5.03;;;2.10;;
46653;SDS011;38960;51.074;17.004;2022-08-21T11:05:53;3.33;;;2.03;;
46653;SDS011;38960;51.074;17.004;2022-08-21T11:11:03;5.05;;;2.10;;
46653;SDS011;38960;51.074;17.004;2022-08-21T11:18:40;4.47;;;2.35;;
46653;SDS011;38960;51.074;17.004;2022-08-21T11:24:29;6.18;;;2.13;;
46653;SDS011;38960;51.074;17.004;2022-08-21T11:29:42;4.63;;;2.05;;
46653;SDS011;38960;51.074;17.004;2022-08-21T11:46:08;6.72;;;2.40;;
46653;SDS011;38960;51.074;17.004;2022-08-21T11:56:33;3.92;;;2.40;;
46653;SDS011;38960;51.074;17.004;2022-08-21T11:59:06;3.83;;;2.13;;
46653;SDS011;38960;51.074;17.004;2022-08-21T12:01:39;3.87;;;2.27;;
46653;SDS011;38960;51.074;17.004;2022-08-21T12:04:18;5.10;;;2.50;;
46653;SDS011;38960;51.074;17.004;2022-08-21T12:06:46;3.00;;;1.98;;
46653;SDS011;38960;51.074;17.004;2022-08-21T12:12:32;7.47;;;2.45;;
46653;SDS011;38960;51.074;17.004;2022-08-21T12:14:45;8.63;;;3.00;;
46653;SDS011;38960;51.074;17.004;2022-08-21T12:17:19;5.93;;;2.10;;
46653;SDS011;38960;51.074;17.004;2022-08-21T12:19:59;3.55;;;2.13;;
46653;SDS011;38960;51.074;17.004;2022-08-21T12:22:36;4.10;;;2.25;;
46653;SDS011;38960;51.074;17.004;2022-08-21T12:25:05;3.97;;;2.30;;
46653;SDS011;38960;51.074;17.004;2022-08-21T12:27:47;4.47;;;2.13;;
46653;SDS011;38960;51.074;17.004;2022-08-21T12:30:34;4.53;;;2.70;;
46653;SDS011;38960;51.074;17.004;2022-08-21T12:33:03;6.25;;;2.28;;
46653;SDS011;38960;51.074;17.004;2022-08-21T12:35:31;4.60;;;2.08;;
46653;SDS011;38960;51.074;17.004;2022-08-21T12:38:02;12.40;;;2.93;;
46653;SDS011;38960;51.074;17.004;2022-08-21T12:40:30;3.78;;;2.85;;
46653;SDS011;38960;51.074;17.004;2022-08-21T12:43:06;3.22;;;2.00;;
46653;SDS011;38960;51.074;17.004;2022-08-21T12:45:43;5.93;;;2.50;;
46653;SDS011;38960;51.074;17.004;2022-08-21T12:50:58;4.50;;;2.40;;
46653;SDS011;38960;51.074;17.004;2022-08-21T12:56:04;5.95;;;2.42;;
46653;SDS011;38960;51.074;17.004;2022-08-21T12:58:34;2.95;;;2.13;;
46653;SDS011;38960;51.074;17.004;2022-08-21T13:01:01;4.85;;;2.53;;
46653;SDS011;38960;51.074;17.004;2022-08-21T13:03:31;3.30;;;2.10;;
46653;SDS011;38960;51.074;17.004;2022-08-21T13:06:00;3.72;;;2.35;;
46653;SDS011;38960;51.074;17.004;2022-08-21T13:08:28;5.43;;;2.35;;
46653;SDS011;38960;51.074;17.004;2022-08-21T13:10:57;4.38;;;2.50;;
46653;SDS011;38960;51.074;17.004;2022-08-21T13:13:29;8.25;;;2.38;;
46653;SDS011;38960;51.074;17.004;2022-08-21T13:15:59;4.97;;;2.63;;
46653;SDS011;38960;51.074;17.004;2022-08-21T13:18:30;4.78;;;2.88;;
46653;SDS011;38960;51.074;17.004;2022-08-21T13:21:05;5.32;;;2.20;;
46653;SDS011;38960;51.074;17.004;2022-08-21T13:23:35;3.83;;;2.08;;
46653;SDS011;38960;51.074;17.004;2022-08-21T13:26:00;4.45;;;2.90;;
46653;SDS011;38960;51.074;17.004;2022-08-21T13:28:32;7.55;;;3.05;;
46653;SDS011;38960;51.074;17.004;2022-08-21T13:30:59;5.45;;;2.97;;
46653;SDS011;38960;51.074;17.004;2022-08-21T13:33:26;4.03;;;2.33;;
46653;SDS011;38960;51.074;17.004;2022-08-21T13:35:58;4.88;;;2.38;;
46653;SDS011;38960;51.074;17.004;2022-08-21T13:38:31;3.95;;;2.33;;
46653;SDS011;38960;51.074;17.004;2022-08-21T13:40:59;5.60;;;2.88;;
46653;SDS011;38960;51.074;17.004;2022-08-21T13:43:31;6.65;;;2.40;;
46653;SDS011;38960;51.074;17.004;2022-08-21T13:45:57;5.15;;;2.65;;
46653;SDS011;38960;51.074;17.004;2022-08-21T13:48:25;3.10;;;2.47;;
46653;SDS011;38960;51.074;17.004;2022-08-21T13:50:51;6.03;;;3.10;;
46653;SDS011;38960;51.074;17.004;2022-08-21T13:53:23;3.70;;;2.58;;
46653;SDS011;38960;51.074;17.004;2022-08-21T13:55:55;3.30;;;2.53;;
46653;SDS011;38960;51.074;17.004;2022-08-21T13:58:54;7.15;;;3.00;;
46653;SDS011;38960;51.074;17.004;2022-08-21T14:01:21;4.65;;;2.20;;
46653;SDS011;38960;51.074;17.004;2022-08-21T14:03:49;4.53;;;2.80;;
46653;SDS011;38960;51.074;17.004;2022-08-21T14:06:20;6.90;;;2.85;;
46653;SDS011;38960;51.074;17.004;2022-08-21T14:11:33;4.90;;;2.92;;
46653;SDS011;38960;51.074;17.004;2022-08-21T14:14:00;4.15;;;2.50;;
46653;SDS011;38960;51.074;17.004;2022-08-21T14:16:40;5.50;;;2.80;;
46653;SDS011;38960;51.074;17.004;2022-08-21T14:21:43;6.55;;;2.70;;
46653;SDS011;38960;51.074;17.004;2022-08-21T14:24:28;5.68;;;2.75;;
46653;SDS011;38960;51.074;17.004;2022-08-21T14:26:55;5.68;;;2.35;;
46653;SDS011;38960;51.074;17.004;2022-08-21T14:29:24;6.47;;;2.92;;
46653;SDS011;38960;51.074;17.004;2022-08-21T14:31:52;3.85;;;2.40;;
46653;SDS011;38960;51.074;17.004;2022-08-21T14:34:24;4.75;;;2.33;;
46653;SDS011;38960;51.074;17.004;2022-08-21T14:36:50;3.75;;;2.38;;
46653;SDS011;38960;51.074;17.004;2022-08-21T14:39:16;4.07;;;2.38;;
46653;SDS011;38960;51.074;17.004;2022-08-21T14:41:42;4.55;;;2.75;;
46653;SDS011;38960;51.074;17.004;2022-08-21T14:44:08;3.22;;;2.38;;
46653;SDS011;38960;51.074;17.004;2022-08-21T14:46:33;3.75;;;2.53;;
46653;SDS011;38960;51.074;17.004;2022-08-21T14:49:01;6.28;;;2.47;;
46653;SDS011;38960;51.074;17.004;2022-08-21T14:51:27;5.20;;;2.38;;
46653;SDS011;38960;51.074;17.004;2022-08-21T14:53:53;5.80;;;2.40;;
46653;SDS011;38960;51.074;17.004;2022-08-21T14:56:18;5.32;;;2.53;;
46653;SDS011;38960;51.074;17.004;2022-08-21T14:58:45;4.28;;;2.70;;
46653;SDS011;38960;51.074;17.004;2022-08-21T15:01:13;4.68;;;2.60;;
46653;SDS011;38960;51.074;17.004;2022-08-21T15:03:40;5.68;;;2.75;;
46653;SDS011;38960;51.074;17.004;2022-08-21T15:06:06;7.00;;;2.60;;
46653;SDS011;38960;51.074;17.004;2022-08-21T15:08:33;3.13;;;2.33;;
46653;SDS011;38960;51.074;17.004;2022-08-21T15:10:59;4.82;;;2.28;;
46653;SDS011;38960;51.074;17.004;2022-08-21T15:13:26;4.68;;;2.60;;
46653;SDS011;38960;51.074;17.004;2022-08-21T15:15:52;3.63;;;2.40;;
46653;SDS011;38960;51.074;17.004;2022-08-21T15:18:18;5.72;;;2.90;;
46653;SDS011;38960;51.074;17.004;2022-08-21T15:20:44;4.88;;;2.85;;
46653;SDS011;38960;51.074;17.004;2022-08-21T15:23:10;9.13;;;2.83;;
46653;SDS011;38960;51.074;17.004;2022-08-21T15:25:36;4.25;;;2.72;;
46653;SDS011;38960;51.074;17.004;2022-08-21T15:28:02;5.18;;;2.67;;
46653;SDS011;38960;51.074;17.004;2022-08-21T15:30:28;5.97;;;3.55;;
46653;SDS011;38960;51.074;17.004;2022-08-21T15:32:55;6.70;;;2.95;;
46653;SDS011;38960;51.074;17.004;2022-08-21T15:35:22;4.95;;;2.60;;
46653;SDS011;38960;51.074;17.004;2022-08-21T15:37:47;8.25;;;3.53;;
46653;SDS011;38960;51.074;17.004;2022-08-21T15:40:13;4.38;;;2.83;;
46653;SDS011;38960;51.074;17.004;2022-08-21T15:42:40;9.18;;;3.58;;
46653;SDS011;38960;51.074;17.004;2022-08-21T15:45:06;6.78;;;3.38;;
46653;SDS011;38960;51.074;17.004;2022-08-21T15:47:34;8.90;;;3.28;;
46653;SDS011;38960;51.074;17.004;2022-08-21T15:50:01;4.15;;;2.90;;
46653;SDS011;38960;51.074;17.004;2022-08-21T15:52:28;5.45;;;2.83;;
46653;SDS011;38960;51.074;17.004;2022-08-21T15:54:54;8.20;;;3.15;;
46653;SDS011;38960;51.074;17.004;2022-08-21T15:57:21;3.35;;;2.95;;
46653;SDS011;38960;51.074;17.004;2022-08-21T15:59:48;9.32;;;3.38;;
46653;SDS011;38960;51.074;17.004;2022-08-21T16:02:24;6.82;;;3.22;;
46653;SDS011;38960;51.074;17.004;2022-08-21T16:04:52;4.28;;;2.90;;
46653;SDS011;38960;51.074;17.004;2022-08-21T16:07:17;7.03;;;2.63;;
46653;SDS011;38960;51.074;17.004;2022-08-21T16:09:43;5.95;;;3.10;;
46653;SDS011;38960;51.074;17.004;2022-08-21T16:12:24;7.03;;;3.47;;
46653;SDS011;38960;51.074;17.004;2022-08-21T16:14:52;6.32;;;3.42;;
46653;SDS011;38960;51.074;17.004;2022-08-21T16:17:18;6.18;;;2.92;;
46653;SDS011;38960;51.074;17.004;2022-08-21T16:19:44;3.72;;;2.80;;
46653;SDS011;38960;51.074;17.004;2022-08-21T16:22:10;4.50;;;2.80;;
46653;SDS011;38960;51.074;17.004;2022-08-21T16:24:35;5.35;;;2.83;;
46653;SDS011;38960;51.074;17.004;2022-08-21T16:27:01;4.55;;;3.13;;